sensor_id;sensor_type;location;lat;lon;timestamp;temperature;humidity
17529;DHT22;8882;53.192;8.184;2023-03-14T05:32:58;9.40;99.90
17529;DHT22;8882;53.192;8.184;2023-03-14T05:35:25;9.40;99.90
17529;DHT22;8882;53.192;8.184;2023-03-14T05:37:50;9.40;99.90
17529;DHT22;8882;53.192;8.184;2023-03-14T05:40:16;9.40;99.90
17529;DHT22;8882;53.192;8.184;2023-03-14T05:42:41;9.40;99.90
17529;DHT22;8882;53.192;8.184;2023-03-14T05:45:07;9.40;99.90
17529;DHT22;8882;53.192;8.184;2023-03-14T05:47:32;9.40;99.90
17529;DHT22;8882;53.192;8.184;2023-03-14T05:49:58;9.40;99.90
17529;DHT22;8882;53.192;8.184;2023-03-14T05:52:23;9.40;99.90
17529;DHT22;8882;53.192;8.184;2023-03-14T05:54:49;9.40;99.90
17529;DHT22;8882;53.192;8.184;2023-03-14T05:57:14;9.40;99.90
17529;DHT22;8882;53.192;8.184;2023-03-14T05:59:40;9.40;99.90
17529;DHT22;8882;53.192;8.184;2023-03-14T06:02:05;9.40;99.90
17529;DHT22;8882;53.192;8.184;2023-03-14T06:04:31;9.30;99.90
17529;DHT22;8882;53.192;8.184;2023-03-14T06:06:56;9.30;99.90
17529;DHT22;8882;53.192;8.184;2023-03-14T06:09:22;9.20;99.90
17529;DHT22;8882;53.192;8.184;2023-03-14T06:11:49;9.20;99.90
17529;DHT22;8882;53.192;8.184;2023-03-14T06:14:14;9.10;99.90
17529;DHT22;8882;53.192;8.184;2023-03-14T06:16:40;9.10;99.90
17529;DHT22;8882;53.192;8.184;2023-03-14T06:19:05;9.10;99.90
17529;DHT22;8882;53.192;8.184;2023-03-14T06:21:31;9.10;99.90
17529;DHT22;8882;53.192;8.184;2023-03-14T06:23:56;9.10;99.90
17529;DHT22;8882;53.192;8.184;2023-03-14T06:26:22;9.20;99.90
17529;DHT22;8882;53.192;8.184;2023-03-14T06:28:48;9.10;99.90
17529;DHT22;8882;53.192;8.184;2023-03-14T06:31:14;9.10;99.90
17529;DHT22;8882;53.192;8.184;2023-03-14T06:33:40;9.20;99.90
17529;DHT22;8882;53.192;8.184;2023-03-14T06:36:06;9.10;99.90
17529;DHT22;8882;53.192;8.184;2023-03-14T06:38:32;9.20;99.90
17529;DHT22;8882;53.192;8.184;2023-03-14T06:41:06;9.20;99.90
17529;DHT22;8882;53.192;8.184;2023-03-14T06:43:32;9.20;99.90
17529;DHT22;8882;53.192;8.184;2023-03-14T06:45:58;9.20;99.90
17529;DHT22;8882;53.192;8.184;2023-03-14T06:48:23;9.30;99.90
17529;DHT22;8882;53.192;8.184;2023-03-14T06:50:49;9.40;99.90
17529;DHT22;8882;53.192;8.184;2023-03-14T06:53:18;9.40;99.90
17529;DHT22;8882;53.192;8.184;2023-03-14T06:55:43;9.50;99.90
17529;DHT22;8882;53.192;8.184;2023-03-14T06:58:09;9.60;99.90
17529;DHT22;8882;53.192;8.184;2023-03-14T07:00:35;9.70;99.90
17529;DHT22;8882;53.192;8.184;2023-03-14T07:03:00;9.70;99.90
17529;DHT22;8882;53.192;8.184;2023-03-14T07:05:26;9.80;99.90
17529;DHT22;8882;53.192;8.184;2023-03-14T07:07:52;9.80;99.90
17529;DHT22;8882;53.192;8.184;2023-03-14T07:10:17;9.70;99.90
17529;DHT22;8882;53.192;8.184;2023-03-14T07:12:43;9.70;99.90
17529;DHT22;8882;53.192;8.184;2023-03-14T07:15:09;9.70;99.90
17529;DHT22;8882;53.192;8.184;2023-03-14T07:17:34;9.60;99.90
17529;DHT22;8882;53.192;8.184;2023-03-14T07:20:00;9.60;99.90
17529;DHT22;8882;53.192;8.184;2023-03-14T07:22:26;9.60;99.90
17529;DHT22;8882;53.192;8.184;2023-03-14T07:24:51;9.50;99.90
17529;DHT22;8882;53.192;8.184;2023-03-14T07:27:17;9.50;99.90
17529;DHT22;8882;53.192;8.184;2023-03-14T07:29:42;9.50;99.90
17529;DHT22;8882;53.192;8.184;2023-03-14T07:32:08;9.50;99.90
17529;DHT22;8882;53.192;8.184;2023-03-14T07:34:34;9.50;99.90
17529;DHT22;8882;53.192;8.184;2023-03-14T07:36:59;9.50;99.90
17529;DHT22;8882;53.192;8.184;2023-03-14T07:39:25;9.50;99.90
17529;DHT22;8882;53.192;8.184;2023-03-14T07:41:50;9.40;99.90
17529;DHT22;8882;53.192;8.184;2023-03-14T07:44:16;9.50;99.90
17529;DHT22;8882;53.192;8.184;2023-03-14T07:46:41;9.50;99.90
17529;DHT22;8882;53.192;8.184;2023-03-14T07:49:07;9.50;99.90
17529;DHT22;8882;53.192;8.184;2023-03-14T07:51:32;9.50;99.90
17529;DHT22;8882;53.192;8.184;2023-03-14T07:53:58;9.50;99.90
17529;DHT22;8882;53.192;8.184;2023-03-14T07:56:23;9.50;99.90
17529;DHT22;8882;53.192;8.184;2023-03-14T07:58:49;9.50;99.90
17529;DHT22;8882;53.192;8.184;2023-03-14T08:01:14;9.50;99.90
17529;DHT22;8882;53.192;8.184;2023-03-14T08:03:40;9.50;99.90
17529;DHT22;8882;53.192;8.184;2023-03-14T08:06:06;9.50;99.90
17529;DHT22;8882;53.192;8.184;2023-03-14T08:08:31;9.60;99.90
17529;DHT22;8882;53.192;8.184;2023-03-14T08:11:03;9.60;99.90
17529;DHT22;8882;53.192;8.184;2023-03-14T08:13:28;9.60;99.90
17529;DHT22;8882;53.192;8.184;2023-03-14T08:15:54;9.60;99.90
17529;DHT22;8882;53.192;8.184;2023-03-14T08:18:19;9.50;99.90
17529;DHT22;8882;53.192;8.184;2023-03-14T08:20:45;9.50;99.90
17529;DHT22;8882;53.192;8.184;2023-03-14T08:23:10;9.50;99.90
17529;DHT22;8882;53.192;8.184;2023-03-14T08:25:37;9.50;99.90
17529;DHT22;8882;53.192;8.184;2023-03-14T08:28:03;9.50;99.90
17529;DHT22;8882;53.192;8.184;2023-03-14T08:30:29;9.40;99.90
17529;DHT22;8882;53.192;8.184;2023-03-14T08:32:57;9.00;99.90
17529;DHT22;8882;53.192;8.184;2023-03-14T08:35:23;8.20;99.90
17529;DHT22;8882;53.192;8.184;2023-03-14T08:37:49;7.80;99.90
17529;DHT22;8882;53.192;8.184;2023-03-14T08:40:15;7.60;99.90
17529;DHT22;8882;53.192;8.184;2023-03-14T08:42:42;7.30;99.90
17529;DHT22;8882;53.192;8.184;2023-03-14T08:45:10;7.20;99.90
17529;DHT22;8882;53.192;8.184;2023-03-14T08:47:36;7.10;99.90
17529;DHT22;8882;53.192;8.184;2023-03-14T08:50:03;6.90;99.90
17529;DHT22;8882;53.192;8.184;2023-03-14T08:52:29;6.70;99.90
17529;DHT22;8882;53.192;8.184;2023-03-14T08:54:56;6.40;99.90
17529;DHT22;8882;53.192;8.184;2023-03-14T08:57:21;6.00;99.90
17529;DHT22;8882;53.192;8.184;2023-03-14T08:59:47;5.90;99.90
17529;DHT22;8882;53.192;8.184;2023-03-14T09:02:12;5.70;99.90
17529;DHT22;8882;53.192;8.184;2023-03-14T09:04:38;5.60;99.90
17529;DHT22;8882;53.192;8.184;2023-03-14T09:07:04;5.30;99.90
17529;DHT22;8882;53.192;8.184;2023-03-14T09:09:30;5.20;99.90
17529;DHT22;8882;53.192;8.184;2023-03-14T09:11:56;5.20;99.90
17529;DHT22;8882;53.192;8.184;2023-03-14T09:14:21;5.20;99.90
17529;DHT22;8882;53.192;8.184;2023-03-14T09:16:47;5.00;99.90
17529;DHT22;8882;53.192;8.184;2023-03-14T09:19:12;4.80;99.90
17529;DHT22;8882;53.192;8.184;2023-03-14T09:21:38;4.80;99.90
17529;DHT22;8882;53.192;8.184;2023-03-14T09:24:04;4.90;99.90
17529;DHT22;8882;53.192;8.184;2023-03-14T09:26:30;5.00;99.90
17529;DHT22;8882;53.192;8.184;2023-03-14T09:28:55;4.90;99.90
17529;DHT22;8882;53.192;8.184;2023-03-14T09:31:21;4.80;99.90
17529;DHT22;8882;53.192;8.184;2023-03-14T09:33:46;4.70;99.90
17529;DHT22;8882;53.192;8.184;2023-03-14T09:36:12;4.80;99.90
17529;DHT22;8882;53.192;8.184;2023-03-14T09:38:37;4.80;99.90
17529;DHT22;8882;53.192;8.184;2023-03-14T09:41:27;4.70;99.90
17529;DHT22;8882;53.192;8.184;2023-03-14T09:46:30;4.50;99.90
17529;DHT22;8882;53.192;8.184;2023-03-14T09:48:57;4.50;99.90
17529;DHT22;8882;53.192;8.184;2023-03-14T09:51:22;4.50;99.90
17529;DHT22;8882;53.192;8.184;2023-03-14T09:53:50;4.60;99.90
17529;DHT22;8882;53.192;8.184;2023-03-14T09:56:28;4.60;99.90
17529;DHT22;8882;53.192;8.184;2023-03-14T09:59:00;4.80;99.90
17529;DHT22;8882;53.192;8.184;2023-03-14T10:01:28;4.90;99.90
17529;DHT22;8882;53.192;8.184;2023-03-14T10:03:56;5.00;99.90
17529;DHT22;8882;53.192;8.184;2023-03-14T10:06:27;5.10;99.90
17529;DHT22;8882;53.192;8.184;2023-03-14T10:08:55;5.20;99.90
17529;DHT22;8882;53.192;8.184;2023-03-14T10:11:22;5.20;99.90
17529;DHT22;8882;53.192;8.184;2023-03-14T10:14:09;5.40;99.90
17529;DHT22;8882;53.192;8.184;2023-03-14T10:16:44;5.40;99.90
17529;DHT22;8882;53.192;8.184;2023-03-14T10:19:13;5.40;99.90
17529;DHT22;8882;53.192;8.184;2023-03-14T10:21:43;5.40;99.90
17529;DHT22;8882;53.192;8.184;2023-03-14T10:24:22;5.50;99.90
17529;DHT22;8882;53.192;8.184;2023-03-14T10:27:18;5.40;99.90
17529;DHT22;8882;53.192;8.184;2023-03-14T10:29:59;5.50;99.90
17529;DHT22;8882;53.192;8.184;2023-03-14T10:32:36;5.60;99.90
17529;DHT22;8882;53.192;8.184;2023-03-14T10:38:02;5.70;99.90
17529;DHT22;8882;53.192;8.184;2023-03-14T10:40:31;5.80;99.90
17529;DHT22;8882;53.192;8.184;2023-03-14T10:42:59;5.80;99.90
17529;DHT22;8882;53.192;8.184;2023-03-14T10:45:29;5.90;99.90
17529;DHT22;8882;53.192;8.184;2023-03-14T10:48:16;6.00;99.90
17529;DHT22;8882;53.192;8.184;2023-03-14T10:53:17;6.10;99.90
17529;DHT22;8882;53.192;8.184;2023-03-14T10:55:44;6.20;99.90
17529;DHT22;8882;53.192;8.184;2023-03-14T10:58:21;6.30;99.90
17529;DHT22;8882;53.192;8.184;2023-03-14T11:00:51;6.30;99.90
17529;DHT22;8882;53.192;8.184;2023-03-14T11:03:19;6.40;99.90
17529;DHT22;8882;53.192;8.184;2023-03-14T11:05:51;6.40;99.90
17529;DHT22;8882;53.192;8.184;2023-03-14T11:08:30;6.50;99.90
17529;DHT22;8882;53.192;8.184;2023-03-14T11:11:22;6.60;99.90
17529;DHT22;8882;53.192;8.184;2023-03-14T11:17:20;6.80;99.90
17529;DHT22;8882;53.192;8.184;2023-03-14T11:22:58;7.00;99.90
17529;DHT22;8882;53.192;8.184;2023-03-14T11:25:32;7.10;99.90
17529;DHT22;8882;53.192;8.184;2023-03-14T11:28:14;7.20;99.90
17529;DHT22;8882;53.192;8.184;2023-03-14T11:30:53;7.30;99.90
17529;DHT22;8882;53.192;8.184;2023-03-14T11:36:22;7.50;99.90
17529;DHT22;8882;53.192;8.184;2023-03-14T11:38:52;7.50;99.90
17529;DHT22;8882;53.192;8.184;2023-03-14T11:41:41;7.20;99.90
17529;DHT22;8882;53.192;8.184;2023-03-14T11:52:25;6.90;99.90
17529;DHT22;8882;53.192;8.184;2023-03-14T11:55:21;6.90;99.90
17529;DHT22;8882;53.192;8.184;2023-03-14T11:57:44;7.00;99.90
17529;DHT22;8882;53.192;8.184;2023-03-14T12:00:24;7.00;99.90
17529;DHT22;8882;53.192;8.184;2023-03-14T12:06:04;7.00;99.90
17529;DHT22;8882;53.192;8.184;2023-03-14T12:11:33;6.90;99.90
17529;DHT22;8882;53.192;8.184;2023-03-14T12:14:00;6.80;99.90
17529;DHT22;8882;53.192;8.184;2023-03-14T12:16:30;6.70;99.90
17529;DHT22;8882;53.192;8.184;2023-03-14T12:18:56;6.80;99.90
17529;DHT22;8882;53.192;8.184;2023-03-14T12:21:24;6.90;99.90
17529;DHT22;8882;53.192;8.184;2023-03-14T12:23:51;6.90;99.90
17529;DHT22;8882;53.192;8.184;2023-03-14T12:26:20;6.90;99.90
17529;DHT22;8882;53.192;8.184;2023-03-14T12:29:11;6.90;99.90
17529;DHT22;8882;53.192;8.184;2023-03-14T12:31:41;6.90;99.90
17529;DHT22;8882;53.192;8.184;2023-03-14T12:42:15;6.80;99.90
17529;DHT22;8882;53.192;8.184;2023-03-14T12:49:42;6.90;99.90
17529;DHT22;8882;53.192;8.184;2023-03-14T12:53:05;6.90;99.90
17529;DHT22;8882;53.192;8.184;2023-03-14T12:55:13;6.90;99.90
17529;DHT22;8882;53.192;8.184;2023-03-14T13:00:40;7.10;99.90
17529;DHT22;8882;53.192;8.184;2023-03-14T13:03:37;7.20;99.90
17529;DHT22;8882;53.192;8.184;2023-03-14T13:06:04;7.40;99.90
17529;DHT22;8882;53.192;8.184;2023-03-14T13:08:44;7.50;99.90
17529;DHT22;8882;53.192;8.184;2023-03-14T13:11:19;7.40;99.90
17529;DHT22;8882;53.192;8.184;2023-03-14T13:13:48;7.40;99.90
17529;DHT22;8882;53.192;8.184;2023-03-14T13:16:20;7.30;99.90
17529;DHT22;8882;53.192;8.184;2023-03-14T13:18:50;7.20;99.90
17529;DHT22;8882;53.192;8.184;2023-03-14T13:21:22;7.10;99.90
17529;DHT22;8882;53.192;8.184;2023-03-14T13:26:21;7.10;99.90
17529;DHT22;8882;53.192;8.184;2023-03-14T13:28:46;7.00;99.90
17529;DHT22;8882;53.192;8.184;2023-03-14T13:31:24;6.90;99.90
17529;DHT22;8882;53.192;8.184;2023-03-14T13:34:06;6.80;99.90
17529;DHT22;8882;53.192;8.184;2023-03-14T13:36:35;6.80;99.90
17529;DHT22;8882;53.192;8.184;2023-03-14T13:39:01;6.80;99.90
17529;DHT22;8882;53.192;8.184;2023-03-14T13:41:30;6.90;99.90
17529;DHT22;8882;53.192;8.184;2023-03-14T13:44:02;7.20;99.90
17529;DHT22;8882;53.192;8.184;2023-03-14T13:46:29;7.10;99.90
17529;DHT22;8882;53.192;8.184;2023-03-14T13:48:57;7.10;99.90
17529;DHT22;8882;53.192;8.184;2023-03-14T13:51:24;7.00;99.90
17529;DHT22;8882;53.192;8.184;2023-03-14T13:53:54;7.00;99.90
17529;DHT22;8882;53.192;8.184;2023-03-14T13:56:25;7.10;99.90
17529;DHT22;8882;53.192;8.184;2023-03-14T13:58:50;7.20;99.90
17529;DHT22;8882;53.192;8.184;2023-03-14T14:01:20;7.20;99.90
17529;DHT22;8882;53.192;8.184;2023-03-14T14:03:50;7.00;99.90
17529;DHT22;8882;53.192;8.184;2023-03-14T14:06:29;6.80;99.90
17529;DHT22;8882;53.192;8.184;2023-03-14T14:08:57;6.70;99.90
17529;DHT22;8882;53.192;8.184;2023-03-14T14:14:19;6.40;99.90
17529;DHT22;8882;53.192;8.184;2023-03-14T14:16:47;6.50;99.90
17529;DHT22;8882;53.192;8.184;2023-03-14T14:19:15;6.50;99.90
17529;DHT22;8882;53.192;8.184;2023-03-14T14:21:42;6.60;99.90
17529;DHT22;8882;53.192;8.184;2023-03-14T14:24:12;6.60;99.90
17529;DHT22;8882;53.192;8.184;2023-03-14T14:26:41;6.80;99.90
17529;DHT22;8882;53.192;8.184;2023-03-14T14:29:28;6.90;99.90
17529;DHT22;8882;53.192;8.184;2023-03-14T14:34:41;6.90;99.90
17529;DHT22;8882;53.192;8.184;2023-03-14T14:37:25;6.80;99.90
17529;DHT22;8882;53.192;8.184;2023-03-14T14:39:53;6.70;99.90
17529;DHT22;8882;53.192;8.184;2023-03-14T14:42:21;6.70;99.90
17529;DHT22;8882;53.192;8.184;2023-03-14T14:44:50;6.60;99.90
17529;DHT22;8882;53.192;8.184;2023-03-14T14:47:21;6.50;99.90
17529;DHT22;8882;53.192;8.184;2023-03-14T14:49:48;6.40;99.90
17529;DHT22;8882;53.192;8.184;2023-03-14T14:52:16;6.40;99.90
17529;DHT22;8882;53.192;8.184;2023-03-14T14:55:02;6.40;99.90
17529;DHT22;8882;53.192;8.184;2023-03-14T14:57:32;6.30;99.90
17529;DHT22;8882;53.192;8.184;2023-03-14T15:00:05;6.30;99.90
17529;DHT22;8882;53.192;8.184;2023-03-14T15:02:38;6.30;99.90
17529;DHT22;8882;53.192;8.184;2023-03-14T15:05:16;6.30;99.90
17529;DHT22;8882;53.192;8.184;2023-03-14T15:07:42;6.30;99.90
17529;DHT22;8882;53.192;8.184;2023-03-14T15:10:17;6.40;99.90
17529;DHT22;8882;53.192;8.184;2023-03-14T15:12:43;6.50;99.90
17529;DHT22;8882;53.192;8.184;2023-03-14T15:15:09;6.40;99.90
17529;DHT22;8882;53.192;8.184;2023-03-14T15:17:35;6.40;99.90
17529;DHT22;8882;53.192;8.184;2023-03-14T15:20:05;6.40;99.90
17529;DHT22;8882;53.192;8.184;2023-03-14T15:22:31;6.50;99.90
17529;DHT22;8882;53.192;8.184;2023-03-14T15:24:57;6.50;99.90
17529;DHT22;8882;53.192;8.184;2023-03-14T15:27:23;6.60;99.90
17529;DHT22;8882;53.192;8.184;2023-03-14T15:29:48;6.70;99.90
17529;DHT22;8882;53.192;8.184;2023-03-14T15:32:15;6.80;99.90
17529;DHT22;8882;53.192;8.184;2023-03-14T15:34:42;6.70;99.90
17529;DHT22;8882;53.192;8.184;2023-03-14T15:37:11;6.60;99.90
17529;DHT22;8882;53.192;8.184;2023-03-14T15:39:38;6.50;99.90
17529;DHT22;8882;53.192;8.184;2023-03-14T15:42:04;6.30;99.90
17529;DHT22;8882;53.192;8.184;2023-03-14T15:44:29;6.20;99.90
17529;DHT22;8882;53.192;8.184;2023-03-14T15:46:54;6.30;99.90
17529;DHT22;8882;53.192;8.184;2023-03-14T15:49:20;6.20;99.90
17529;DHT22;8882;53.192;8.184;2023-03-14T15:51:45;6.10;99.90
17529;DHT22;8882;53.192;8.184;2023-03-14T15:54:11;6.00;99.90
17529;DHT22;8882;53.192;8.184;2023-03-14T15:56:36;5.90;99.90
17529;DHT22;8882;53.192;8.184;2023-03-14T15:59:02;5.90;99.90
17529;DHT22;8882;53.192;8.184;2023-03-14T16:01:28;5.80;1.00
17529;DHT22;8882;53.192;8.184;2023-03-14T16:03:53;5.90;1.00
17529;DHT22;8882;53.192;8.184;2023-03-14T16:06:19;5.80;99.90
17529;DHT22;8882;53.192;8.184;2023-03-14T16:08:45;5.70;99.90
17529;DHT22;8882;53.192;8.184;2023-03-14T16:11:13;5.80;99.90
17529;DHT22;8882;53.192;8.184;2023-03-14T16:13:40;5.90;99.90
17529;DHT22;8882;53.192;8.184;2023-03-14T16:16:06;6.00;99.90
17529;DHT22;8882;53.192;8.184;2023-03-14T16:18:34;6.00;99.90
17529;DHT22;8882;53.192;8.184;2023-03-14T16:21:02;6.00;99.90
17529;DHT22;8882;53.192;8.184;2023-03-14T16:23:30;6.00;99.90
17529;DHT22;8882;53.192;8.184;2023-03-14T16:25:56;5.90;99.90
17529;DHT22;8882;53.192;8.184;2023-03-14T16:28:22;5.90;99.90
17529;DHT22;8882;53.192;8.184;2023-03-14T16:30:48;5.90;99.90
17529;DHT22;8882;53.192;8.184;2023-03-14T16:33:15;5.80;99.90
17529;DHT22;8882;53.192;8.184;2023-03-14T16:35:41;5.80;99.90
17529;DHT22;8882;53.192;8.184;2023-03-14T16:38:08;5.70;99.90
17529;DHT22;8882;53.192;8.184;2023-03-14T16:40:33;5.50;99.90
17529;DHT22;8882;53.192;8.184;2023-03-14T16:42:59;5.30;99.90
17529;DHT22;8882;53.192;8.184;2023-03-14T16:45:24;5.10;99.90
17529;DHT22;8882;53.192;8.184;2023-03-14T16:47:50;5.10;99.90
17529;DHT22;8882;53.192;8.184;2023-03-14T16:50:15;4.90;99.90
17529;DHT22;8882;53.192;8.184;2023-03-14T16:52:41;4.80;99.90
17529;DHT22;8882;53.192;8.184;2023-03-14T16:55:07;4.70;99.90
17529;DHT22;8882;53.192;8.184;2023-03-14T16:57:33;4.70;99.90
17529;DHT22;8882;53.192;8.184;2023-03-14T16:59:58;4.70;99.90
17529;DHT22;8882;53.192;8.184;2023-03-14T17:02:24;4.60;99.90
17529;DHT22;8882;53.192;8.184;2023-03-14T17:04:50;4.50;99.90
17529;DHT22;8882;53.192;8.184;2023-03-14T17:07:15;4.50;99.90
17529;DHT22;8882;53.192;8.184;2023-03-14T17:09:41;4.30;99.90
17529;DHT22;8882;53.192;8.184;2023-03-14T17:12:07;4.30;99.90
17529;DHT22;8882;53.192;8.184;2023-03-14T17:14:32;4.40;99.90
17529;DHT22;8882;53.192;8.184;2023-03-14T17:16:58;4.50;99.90
17529;DHT22;8882;53.192;8.184;2023-03-14T17:19:23;4.40;99.90
17529;DHT22;8882;53.192;8.184;2023-03-14T17:21:49;4.40;99.90
17529;DHT22;8882;53.192;8.184;2023-03-14T17:24:15;4.30;99.90
17529;DHT22;8882;53.192;8.184;2023-03-14T17:26:40;4.30;99.90
17529;DHT22;8882;53.192;8.184;2023-03-14T17:29:06;4.20;99.90
17529;DHT22;8882;53.192;8.184;2023-03-14T17:31:31;4.10;99.90
17529;DHT22;8882;53.192;8.184;2023-03-14T17:33:57;4.10;99.90
17529;DHT22;8882;53.192;8.184;2023-03-14T17:36:22;4.00;99.90
17529;DHT22;8882;53.192;8.184;2023-03-14T17:38:53;3.90;99.90
17529;DHT22;8882;53.192;8.184;2023-03-14T17:41:19;3.90;99.90
17529;DHT22;8882;53.192;8.184;2023-03-14T17:43:45;3.80;99.90
17529;DHT22;8882;53.192;8.184;2023-03-14T17:46:11;3.70;99.90
17529;DHT22;8882;53.192;8.184;2023-03-14T17:48:43;3.70;99.90
17529;DHT22;8882;53.192;8.184;2023-03-14T17:51:09;3.70;99.90
17529;DHT22;8882;53.192;8.184;2023-03-14T17:53:34;3.70;99.90
17529;DHT22;8882;53.192;8.184;2023-03-14T17:56:00;3.70;99.90
17529;DHT22;8882;53.192;8.184;2023-03-14T17:58:26;3.70;99.90
17529;DHT22;8882;53.192;8.184;2023-03-14T18:00:52;3.70;99.90
17529;DHT22;8882;53.192;8.184;2023-03-14T18:03:17;3.70;99.90
17529;DHT22;8882;53.192;8.184;2023-03-14T18:05:43;3.70;99.90
17529;DHT22;8882;53.192;8.184;2023-03-14T18:08:12;3.60;99.90
17529;DHT22;8882;53.192;8.184;2023-03-14T18:10:37;3.60;99.90
17529;DHT22;8882;53.192;8.184;2023-03-14T18:15:30;3.40;99.90
17529;DHT22;8882;53.192;8.184;2023-03-14T18:17:59;3.30;99.90
17529;DHT22;8882;53.192;8.184;2023-03-14T18:20:26;3.20;99.90
17529;DHT22;8882;53.192;8.184;2023-03-14T18:22:51;3.20;99.90
17529;DHT22;8882;53.192;8.184;2023-03-14T18:25:17;3.20;99.90
17529;DHT22;8882;53.192;8.184;2023-03-14T18:27:42;3.10;99.90
17529;DHT22;8882;53.192;8.184;2023-03-14T18:30:08;3.10;99.90
17529;DHT22;8882;53.192;8.184;2023-03-14T18:32:34;3.10;99.90
17529;DHT22;8882;53.192;8.184;2023-03-14T18:35:00;3.10;99.90
17529;DHT22;8882;53.192;8.184;2023-03-14T18:37:25;3.10;99.90
17529;DHT22;8882;53.192;8.184;2023-03-14T18:39:51;3.10;99.90
17529;DHT22;8882;53.192;8.184;2023-03-14T18:42:16;3.10;99.90
17529;DHT22;8882;53.192;8.184;2023-03-14T18:44:42;3.00;99.90
17529;DHT22;8882;53.192;8.184;2023-03-14T18:47:07;3.00;99.90
17529;DHT22;8882;53.192;8.184;2023-03-14T18:49:33;3.00;99.90
17529;DHT22;8882;53.192;8.184;2023-03-14T18:51:58;3.00;99.90
17529;DHT22;8882;53.192;8.184;2023-03-14T18:54:24;3.00;99.90
17529;DHT22;8882;53.192;8.184;2023-03-14T18:56:50;3.00;99.90
17529;DHT22;8882;53.192;8.184;2023-03-14T18:59:16;3.00;99.90
17529;DHT22;8882;53.192;8.184;2023-03-14T19:01:41;3.00;99.90
17529;DHT22;8882;53.192;8.184;2023-03-14T19:04:07;3.00;99.90
17529;DHT22;8882;53.192;8.184;2023-03-14T19:06:33;2.90;99.90
17529;DHT22;8882;53.192;8.184;2023-03-14T19:09:00;2.80;99.90
17529;DHT22;8882;53.192;8.184;2023-03-14T19:11:25;2.80;99.90
17529;DHT22;8882;53.192;8.184;2023-03-14T19:13:51;2.80;99.90
17529;DHT22;8882;53.192;8.184;2023-03-14T19:16:18;2.90;99.90
17529;DHT22;8882;53.192;8.184;2023-03-14T19:18:43;2.90;99.90
17529;DHT22;8882;53.192;8.184;2023-03-14T19:21:13;2.90;99.90
17529;DHT22;8882;53.192;8.184;2023-03-14T19:23:41;3.00;99.90
17529;DHT22;8882;53.192;8.184;2023-03-14T19:26:07;2.90;99.90
17529;DHT22;8882;53.192;8.184;2023-03-14T19:28:34;2.90;99.90
17529;DHT22;8882;53.192;8.184;2023-03-14T19:31:02;2.80;99.90
17529;DHT22;8882;53.192;8.184;2023-03-14T19:33:28;2.80;99.90
17529;DHT22;8882;53.192;8.184;2023-03-14T19:35:55;2.80;99.90
17529;DHT22;8882;53.192;8.184;2023-03-14T19:38:20;2.70;99.90
17529;DHT22;8882;53.192;8.184;2023-03-14T19:40:46;2.70;99.90
17529;DHT22;8882;53.192;8.184;2023-03-14T19:43:12;2.60;99.90
17529;DHT22;8882;53.192;8.184;2023-03-14T19:45:38;2.70;99.90
17529;DHT22;8882;53.192;8.184;2023-03-14T19:48:05;2.70;99.90
17529;DHT22;8882;53.192;8.184;2023-03-14T19:50:31;2.70;99.90
17529;DHT22;8882;53.192;8.184;2023-03-14T19:52:57;2.80;99.90
17529;DHT22;8882;53.192;8.184;2023-03-14T19:55:24;2.80;99.90
17529;DHT22;8882;53.192;8.184;2023-03-14T19:57:50;2.80;99.90
17529;DHT22;8882;53.192;8.184;2023-03-14T20:00:17;2.70;99.90
17529;DHT22;8882;53.192;8.184;2023-03-14T20:02:47;2.70;99.90
17529;DHT22;8882;53.192;8.184;2023-03-14T20:05:14;2.70;99.90
17529;DHT22;8882;53.192;8.184;2023-03-14T20:07:40;2.70;99.90
17529;DHT22;8882;53.192;8.184;2023-03-14T20:10:07;2.70;99.90
17529;DHT22;8882;53.192;8.184;2023-03-14T20:12:33;2.70;99.90
17529;DHT22;8882;53.192;8.184;2023-03-14T20:14:59;2.70;99.90
17529;DHT22;8882;53.192;8.184;2023-03-14T20:17:26;2.70;99.90
17529;DHT22;8882;53.192;8.184;2023-03-14T20:19:51;2.70;99.90
17529;DHT22;8882;53.192;8.184;2023-03-14T20:22:17;2.70;99.90
17529;DHT22;8882;53.192;8.184;2023-03-14T20:24:42;2.70;99.90
17529;DHT22;8882;53.192;8.184;2023-03-14T20:27:08;2.70;99.90
17529;DHT22;8882;53.192;8.184;2023-03-14T20:29:33;2.70;99.90
17529;DHT22;8882;53.192;8.184;2023-03-14T20:31:59;2.70;99.90
17529;DHT22;8882;53.192;8.184;2023-03-14T20:34:25;2.60;99.90
17529;DHT22;8882;53.192;8.184;2023-03-14T20:36:51;2.70;99.90
17529;DHT22;8882;53.192;8.184;2023-03-14T20:39:17;2.60;99.90
17529;DHT22;8882;53.192;8.184;2023-03-14T20:41:43;2.60;99.90
17529;DHT22;8882;53.192;8.184;2023-03-14T20:44:09;2.60;99.90
17529;DHT22;8882;53.192;8.184;2023-03-14T20:46:39;2.60;99.90
17529;DHT22;8882;53.192;8.184;2023-03-14T20:49:05;2.60;99.90
17529;DHT22;8882;53.192;8.184;2023-03-14T20:51:31;2.60;99.90
17529;DHT22;8882;53.192;8.184;2023-03-14T20:53:56;2.60;99.90
17529;DHT22;8882;53.192;8.184;2023-03-14T20:56:22;2.60;99.90
17529;DHT22;8882;53.192;8.184;2023-03-14T20:58:48;2.60;99.90
17529;DHT22;8882;53.192;8.184;2023-03-14T21:01:13;2.50;99.90
17529;DHT22;8882;53.192;8.184;2023-03-14T21:03:39;2.50;99.90
17529;DHT22;8882;53.192;8.184;2023-03-14T21:06:09;2.50;99.90
17529;DHT22;8882;53.192;8.184;2023-03-14T21:08:35;2.50;99.90
17529;DHT22;8882;53.192;8.184;2023-03-14T21:11:00;2.50;99.90
17529;DHT22;8882;53.192;8.184;2023-03-14T21:13:26;2.50;99.90
17529;DHT22;8882;53.192;8.184;2023-03-14T21:15:52;2.50;99.90
17529;DHT22;8882;53.192;8.184;2023-03-14T21:18:17;2.50;99.90
17529;DHT22;8882;53.192;8.184;2023-03-14T21:20:44;2.60;99.90
17529;DHT22;8882;53.192;8.184;2023-03-14T21:23:10;2.60;99.90
17529;DHT22;8882;53.192;8.184;2023-03-14T21:25:36;2.60;99.90
17529;DHT22;8882;53.192;8.184;2023-03-14T21:28:02;2.70;99.90
17529;DHT22;8882;53.192;8.184;2023-03-14T21:30:29;2.60;99.90
17529;DHT22;8882;53.192;8.184;2023-03-14T21:32:54;2.60;99.90
17529;DHT22;8882;53.192;8.184;2023-03-14T21:35:20;2.60;99.90
17529;DHT22;8882;53.192;8.184;2023-03-14T21:37:45;2.50;99.90
17529;DHT22;8882;53.192;8.184;2023-03-14T21:40:11;2.50;99.90
17529;DHT22;8882;53.192;8.184;2023-03-14T21:42:37;2.40;99.90
17529;DHT22;8882;53.192;8.184;2023-03-14T21:45:03;2.30;99.90
17529;DHT22;8882;53.192;8.184;2023-03-14T21:47:29;2.30;99.90
17529;DHT22;8882;53.192;8.184;2023-03-14T21:49:54;2.40;99.90
17529;DHT22;8882;53.192;8.184;2023-03-14T21:52:20;2.40;99.90
17529;DHT22;8882;53.192;8.184;2023-03-14T21:54:46;2.40;99.90
17529;DHT22;8882;53.192;8.184;2023-03-14T21:57:13;2.40;99.90
17529;DHT22;8882;53.192;8.184;2023-03-14T21:59:40;2.30;99.90
